createdAt,value
2018-01-16T00:01:17.456Z,97204.22
2018-01-16T00:03:45.708Z,97218.80
2018-01-16T00:06:13.992Z,97207.41
2018-01-16T00:08:42.249Z,97213.64
2018-01-16T00:11:10.564Z,97225.99
2018-01-16T00:13:38.792Z,97211.61
2018-01-16T00:16:07.318Z,97216.52
2018-01-16T00:18:35.574Z,97209.72
2018-01-16T00:21:04.055Z,97214.91
2018-01-16T00:23:32.307Z,97220.69
2018-01-16T00:26:00.607Z,97233.89
2018-01-16T00:28:28.891Z,97202.59
2018-01-16T00:30:57.170Z,97212.09
2018-01-16T00:33:25.425Z,97204.92
2018-01-16T00:35:54.654Z,97204.56
2018-01-16T00:38:22.910Z,97193.89
2018-01-16T00:40:51.162Z,97200.95
2018-01-16T00:43:19.458Z,97230.17
2018-01-16T00:45:47.727Z,97234.95
2018-01-16T00:48:16.013Z,97246.38
2018-01-16T00:50:44.279Z,97219.94
2018-01-16T00:53:12.563Z,97220.55
2018-01-16T00:55:40.839Z,97214.19
2018-01-16T00:58:09.166Z,97219.83
2018-01-16T01:00:37.429Z,97239.15
2018-01-16T01:03:05.710Z,97219.61
2018-01-16T01:05:33.971Z,97219.80
2018-01-16T01:08:02.267Z,97225.09
2018-01-16T01:10:30.517Z,97225.13
2018-01-16T01:12:58.820Z,97232.11
2018-01-16T01:15:27.087Z,97221.34
2018-01-16T01:17:55.375Z,97227.84
2018-01-16T01:20:23.702Z,97221.86
2018-01-16T01:22:51.938Z,97241.24
2018-01-16T01:25:20.235Z,97238.41
2018-01-16T01:27:48.833Z,97238.17
2018-01-16T01:30:17.134Z,97241.01
2018-01-16T01:32:45.512Z,97250.83
2018-01-16T01:35:13.803Z,97253.38
2018-01-16T01:37:42.065Z,97239.20
2018-01-16T01:40:10.360Z,97243.69
2018-01-16T01:42:38.622Z,97222.91
2018-01-16T01:45:06.892Z,97221.42
2018-01-16T01:47:35.172Z,97225.08
2018-01-16T01:50:04.453Z,97215.30
2018-01-16T01:52:33.144Z,97207.52
2018-01-16T01:55:01.431Z,97220.25
2018-01-16T01:57:29.702Z,97221.19
2018-01-16T01:59:57.982Z,97222.16
2018-01-16T02:02:26.280Z,97227.22
2018-01-16T02:04:54.524Z,97221.33
2018-01-16T02:07:22.817Z,97207.91
2018-01-16T02:09:51.076Z,97218.97
2018-01-16T02:12:19.380Z,97212.34
2018-01-16T02:14:47.627Z,97206.56
2018-01-16T02:17:15.902Z,97210.70
2018-01-16T02:19:44.166Z,97221.08
2018-01-16T02:22:12.448Z,97199.59
2018-01-16T02:24:40.703Z,97210.34
2018-01-16T02:27:08.993Z,97208.23
2018-01-16T02:29:37.294Z,97228.10
2018-01-16T02:32:05.987Z,97211.42
2018-01-16T02:34:34.227Z,97211.19
2018-01-16T02:37:02.542Z,97209.72
2018-01-16T02:39:30.805Z,97206.04
2018-01-16T02:41:59.080Z,97197.37
2018-01-16T02:44:27.355Z,97198.19
2018-01-16T02:46:55.623Z,97186.63
2018-01-16T02:49:23.923Z,97195.59
2018-01-16T02:51:52.174Z,97192.93
2018-01-16T02:54:20.479Z,97200.69
2018-01-16T02:56:48.746Z,97183.45
2018-01-16T02:59:17.018Z,97175.56
2018-01-16T03:01:45.294Z,97179.77
2018-01-16T03:04:13.561Z,97168.89
2018-01-16T03:06:41.848Z,97175.33
2018-01-16T03:09:10.160Z,97168.63
2018-01-16T03:11:38.418Z,97168.08
2018-01-16T03:14:06.695Z,97148.67
2018-01-16T03:16:34.960Z,97145.02
2018-01-16T03:19:03.262Z,97162.72
2018-01-16T03:21:31.510Z,97164.69
2018-01-16T03:23:59.776Z,97152.70
2018-01-16T03:26:28.064Z,97145.64
2018-01-16T03:28:56.335Z,97146.63
2018-01-16T03:31:25.417Z,97163.05
2018-01-16T03:33:53.663Z,97153.39
2018-01-16T03:36:21.955Z,97155.66
2018-01-16T03:38:50.200Z,97141.57
2018-01-16T03:41:18.480Z,97145.94
2018-01-16T03:43:46.717Z,97132.45
2018-01-16T03:46:15.013Z,97121.97
2018-01-16T03:48:43.259Z,97121.38
2018-01-16T03:51:11.604Z,97084.12
2018-01-16T03:53:39.894Z,97092.55
2018-01-16T03:56:08.185Z,97087.81
2018-01-16T03:58:36.752Z,97094.09
2018-01-16T04:01:05.052Z,97090.05
2018-01-16T04:03:33.330Z,97082.69
2018-01-16T04:06:01.619Z,97082.79
2018-01-16T04:08:29.895Z,97073.81
2018-01-16T04:10:58.163Z,97068.90
2018-01-16T04:13:26.457Z,97050.70
2018-01-16T04:15:54.698Z,97037.09
2018-01-16T04:18:23.004Z,97035.01
2018-01-16T04:20:51.284Z,97047.70
2018-01-16T04:23:19.568Z,97050.95
2018-01-16T04:25:48.082Z,97041.91
2018-01-16T04:28:16.367Z,97043.75
2018-01-16T04:30:44.658Z,97053.16
2018-01-16T04:33:12.902Z,97044.69
2018-01-16T04:35:41.172Z,97033.26
2018-01-16T04:38:09.473Z,97031.61
2018-01-16T04:40:37.720Z,97017.91
2018-01-16T04:43:06.353Z,97022.18
2018-01-16T04:45:34.628Z,96998.08
2018-01-16T04:48:02.927Z,97020.95
2018-01-16T04:50:31.187Z,97032.64
2018-01-16T04:52:59.756Z,97025.75
2018-01-16T04:55:28.032Z,97009.42
2018-01-16T04:57:56.279Z,96996.52
2018-01-16T05:00:24.599Z,96989.16
2018-01-16T05:02:52.873Z,96988.89
2018-01-16T05:05:21.152Z,96983.58
2018-01-16T05:07:49.425Z,96996.38
2018-01-16T05:10:17.701Z,96991.39
2018-01-16T05:12:45.968Z,96996.70
2018-01-16T05:15:14.419Z,96988.48
2018-01-16T05:17:42.651Z,96977.19
2018-01-16T05:20:10.930Z,96988.61
2018-01-16T05:22:39.187Z,96989.83
2018-01-16T05:25:07.485Z,96975.23
2018-01-16T05:27:35.772Z,96987.73
2018-01-16T05:30:04.924Z,96968.28
2018-01-16T05:32:33.195Z,96978.30
2018-01-16T05:35:01.495Z,96986.14
2018-01-16T05:37:29.803Z,96951.73
2018-01-16T05:39:59.023Z,96959.61
2018-01-16T05:42:27.307Z,96949.55
2018-01-16T05:44:55.559Z,96976.27
2018-01-16T05:47:23.849Z,96973.69
2018-01-16T05:49:52.439Z,96963.58
2018-01-16T05:52:20.729Z,96966.69
2018-01-16T05:54:48.980Z,96951.61
2018-01-16T05:57:17.299Z,96961.78
2018-01-16T05:59:45.584Z,96970.15
2018-01-16T06:02:13.866Z,96950.32
2018-01-16T06:04:42.118Z,96953.78
2018-01-16T06:07:10.411Z,96956.62
2018-01-16T06:09:38.702Z,96955.27
2018-01-16T06:12:06.964Z,96970.69
2018-01-16T06:14:35.239Z,96955.70
2018-01-16T06:17:04.544Z,97005.81
2018-01-16T06:19:32.836Z,96956.14
2018-01-16T06:22:01.103Z,96969.72
2018-01-16T06:24:29.383Z,96985.00
2018-01-16T06:26:57.638Z,96986.36
2018-01-16T06:29:25.963Z,96969.84
2018-01-16T06:31:54.239Z,96964.41
2018-01-16T06:34:22.523Z,96976.38
2018-01-16T06:36:50.805Z,96976.46
2018-01-16T06:39:19.086Z,96968.09
2018-01-16T06:41:47.358Z,96951.80
2018-01-16T06:44:15.682Z,96954.52
2018-01-16T06:46:44.004Z,96960.02
2018-01-16T06:49:12.264Z,96957.72
2018-01-16T06:51:40.546Z,96977.14
2018-01-16T06:54:08.798Z,97002.05
2018-01-16T06:56:37.419Z,97007.93
2018-01-16T06:59:05.726Z,97018.78
2018-01-16T07:01:34.160Z,97027.98
2018-01-16T07:04:02.778Z,97042.96
2018-01-16T07:06:31.065Z,97022.30
2018-01-16T07:08:59.336Z,97006.41
2018-01-16T07:11:27.602Z,97014.11
2018-01-16T07:13:55.851Z,97042.16
2018-01-16T07:16:24.135Z,97025.82
2018-01-16T07:18:52.429Z,97025.98
2018-01-16T07:21:20.679Z,97034.01
2018-01-16T07:23:49.024Z,97033.12
2018-01-16T07:26:17.351Z,97030.14
2018-01-16T07:28:45.627Z,97023.03
2018-01-16T07:31:13.879Z,97043.57
2018-01-16T07:33:42.182Z,97039.95
2018-01-16T07:36:10.446Z,97038.94
2018-01-16T07:38:38.755Z,97037.80
2018-01-16T07:41:07.177Z,97039.63
2018-01-16T07:43:35.567Z,97051.28
2018-01-16T07:46:03.836Z,97041.89
2018-01-16T07:48:32.151Z,97026.07
2018-01-16T07:51:00.424Z,97028.44
2018-01-16T07:53:28.704Z,97024.29
2018-01-16T07:55:56.994Z,97039.03
2018-01-16T07:58:25.251Z,97052.19
2018-01-16T08:00:53.548Z,97043.09
2018-01-16T08:03:21.803Z,97048.98
2018-01-16T08:05:50.112Z,97053.31
2018-01-16T08:08:18.363Z,97042.09
2018-01-16T08:10:46.658Z,97042.55
2018-01-16T08:13:14.942Z,97049.02
2018-01-16T08:15:43.211Z,97048.20
2018-01-16T08:18:11.499Z,97044.09
2018-01-16T08:20:39.754Z,97035.00
2018-01-16T08:23:08.083Z,97033.69
2018-01-16T08:25:36.397Z,97032.25
2018-01-16T08:28:05.003Z,97031.39
2018-01-16T08:30:33.250Z,97032.34
2018-01-16T08:33:01.534Z,97037.67
2018-01-16T08:35:30.615Z,97006.12
2018-01-16T08:37:58.914Z,97018.13
2018-01-16T08:40:27.231Z,97034.58
2018-01-16T08:42:55.475Z,97008.05
2018-01-16T08:45:23.752Z,97023.08
2018-01-16T08:47:52.004Z,97019.20
2018-01-16T08:50:20.323Z,97014.09
2018-01-16T08:52:48.591Z,97023.11
2018-01-16T08:55:16.913Z,97028.78
2018-01-16T08:57:45.156Z,97020.61
2018-01-16T09:00:13.439Z,97049.01
2018-01-16T09:02:41.734Z,97048.19
2018-01-16T09:05:10.023Z,97039.60
2018-01-16T09:07:38.284Z,97033.32
2018-01-16T09:10:06.566Z,97033.16
2018-01-16T09:12:34.838Z,97016.76
2018-01-16T09:15:04.115Z,97043.30
2018-01-16T09:17:32.362Z,97034.72
2018-01-16T09:20:00.668Z,97022.36
2018-01-16T09:22:28.927Z,97031.27
2018-01-16T09:24:57.216Z,97014.03
2018-01-16T09:27:25.473Z,97012.87
2018-01-16T09:29:53.772Z,97026.22
2018-01-16T09:32:22.049Z,97020.46
2018-01-16T09:34:50.312Z,97010.88
2018-01-16T09:37:18.685Z,97016.27
2018-01-16T09:39:46.938Z,97012.20
2018-01-16T09:42:15.230Z,97021.09
2018-01-16T09:44:43.528Z,97010.90
2018-01-16T09:47:11.798Z,97019.19
2018-01-16T09:49:40.108Z,97017.97
2018-01-16T09:52:08.412Z,97026.88
2018-01-16T09:54:36.668Z,97020.75
2018-01-16T09:57:05.396Z,97013.94
2018-01-16T09:59:33.666Z,97010.16
2018-01-16T10:02:01.914Z,97019.89
2018-01-16T10:04:30.192Z,97020.73
2018-01-16T10:06:58.448Z,97012.23
2018-01-16T10:09:26.765Z,97014.59
2018-01-16T10:11:55.046Z,96999.05
2018-01-16T10:14:23.360Z,96995.89
2018-01-16T10:16:51.610Z,97023.94
2018-01-16T10:19:19.935Z,97038.05
2018-01-16T10:21:48.191Z,97033.09
2018-01-16T10:24:16.470Z,97035.94
2018-01-16T10:26:44.736Z,97089.08
2018-01-16T10:29:13.025Z,97126.53
2018-01-16T10:31:41.362Z,97106.01
2018-01-16T10:34:09.605Z,97131.72
2018-01-16T10:36:37.879Z,97115.97
2018-01-16T10:39:06.150Z,97133.86
2018-01-16T10:41:34.437Z,97110.45
2018-01-16T10:44:02.706Z,97101.89
2018-01-16T10:46:30.984Z,97120.98
2018-01-16T10:48:59.351Z,97108.59
2018-01-16T10:51:27.623Z,97111.25
2018-01-16T10:53:55.867Z,97075.83
2018-01-16T10:56:24.152Z,97093.03
2018-01-16T10:58:52.423Z,97094.53
2018-01-16T11:01:20.861Z,97077.38
2018-01-16T11:03:49.080Z,97084.53
2018-01-16T11:06:17.378Z,97069.45
2018-01-16T11:08:47.807Z,97089.78
2018-01-16T11:11:16.045Z,97070.63
2018-01-16T11:13:44.406Z,97070.66
2018-01-16T11:16:12.643Z,97065.89
2018-01-16T11:18:40.967Z,97062.02
2018-01-16T11:21:09.187Z,97067.03
2018-01-16T11:23:37.524Z,97067.19
2018-01-16T11:26:05.828Z,97061.85
2018-01-16T11:28:34.155Z,97086.59
2018-01-16T11:31:03.069Z,97067.17
2018-01-16T11:33:31.332Z,97064.09
2018-01-16T11:35:59.619Z,97051.64
2018-01-16T11:38:27.867Z,97044.22
2018-01-16T11:40:56.232Z,97043.56
2018-01-16T11:43:24.482Z,97026.58
2018-01-16T11:45:52.766Z,97053.97
2018-01-16T11:48:21.025Z,97037.43
2018-01-16T11:50:49.311Z,97051.54
2018-01-16T11:53:17.555Z,97055.12
2018-01-16T11:55:45.836Z,97035.72
2018-01-16T11:58:14.182Z,97053.93
2018-01-16T12:00:42.521Z,97072.24
2018-01-16T12:03:10.769Z,97081.14
2018-01-16T12:05:39.126Z,97089.52
2018-01-16T12:08:07.456Z,97088.66
2018-01-16T12:10:35.768Z,97126.70
2018-01-16T12:13:04.040Z,97112.75
2018-01-16T12:15:32.361Z,97087.75
2018-01-16T12:18:00.658Z,97088.67
2018-01-16T12:20:28.922Z,97084.44
2018-01-16T12:22:57.489Z,97071.70
2018-01-16T12:25:25.734Z,97057.41
2018-01-16T12:27:54.074Z,97072.44
2018-01-16T12:30:22.333Z,97080.95
2018-01-16T12:32:50.622Z,97100.09
2018-01-16T12:35:19.293Z,97088.92
2018-01-16T12:37:47.571Z,97104.72
2018-01-16T12:40:15.836Z,97070.29
2018-01-16T12:42:44.131Z,97115.95
2018-01-16T12:45:12.444Z,97129.05
2018-01-16T12:47:40.704Z,97115.33
2018-01-16T12:50:09.010Z,97129.98
2018-01-16T12:52:37.995Z,97137.00
2018-01-16T12:55:06.274Z,97142.50
2018-01-16T12:57:34.561Z,97145.88
2018-01-16T13:00:02.925Z,97145.50
2018-01-16T13:02:31.172Z,97137.06
2018-01-16T13:04:59.450Z,97141.11
2018-01-16T13:07:27.771Z,97099.16
2018-01-16T13:09:56.019Z,97103.45
2018-01-16T13:12:24.405Z,97099.54
2018-01-16T13:14:52.694Z,97101.95
2018-01-16T13:17:20.982Z,97115.78
2018-01-16T13:19:49.751Z,97117.70
2018-01-16T13:22:18.034Z,97119.89
2018-01-16T13:24:46.339Z,97105.13
2018-01-16T13:27:14.628Z,97102.38
2018-01-16T13:29:42.879Z,97125.38
2018-01-16T13:32:11.223Z,97100.16
2018-01-16T13:34:39.506Z,97101.38
2018-01-16T13:37:07.783Z,97090.94
2018-01-16T13:39:36.295Z,97102.20
2018-01-16T13:42:05.065Z,97098.53
2018-01-16T13:44:33.328Z,97117.16
2018-01-16T13:47:01.591Z,97128.55
2018-01-16T13:49:29.873Z,97138.13
2018-01-16T13:51:58.143Z,97134.68
2018-01-16T13:54:26.458Z,97135.63
2018-01-16T13:56:54.800Z,97160.13
2018-01-16T13:59:23.046Z,97170.80
2018-01-16T14:01:51.294Z,97175.13
2018-01-16T14:04:19.587Z,97171.02
2018-01-16T14:06:47.842Z,97187.92
2018-01-16T14:09:16.143Z,97196.45
2018-01-16T14:11:44.425Z,97171.47
2018-01-16T14:14:12.704Z,97202.91
2018-01-16T14:16:41.824Z,97168.89
2018-01-16T14:19:10.072Z,97167.67
2018-01-16T14:21:38.440Z,97160.97
2018-01-16T14:24:06.711Z,97175.80
2018-01-16T14:26:34.998Z,97173.22
2018-01-16T14:29:03.294Z,97174.45
2018-01-16T14:31:31.578Z,97165.56
2018-01-16T14:33:59.830Z,97165.92
2018-01-16T14:36:28.121Z,97151.50
2018-01-16T14:38:56.382Z,97160.55
2018-01-16T14:41:24.813Z,97157.89
2018-01-16T14:43:53.144Z,97151.53
2018-01-16T14:46:21.391Z,97160.38
2018-01-16T14:48:49.741Z,97150.27
2018-01-16T14:51:18.046Z,97147.36
2018-01-16T14:53:46.321Z,97156.63
2018-01-16T14:56:14.599Z,97158.89
2018-01-16T14:58:42.879Z,97145.03
2018-01-16T15:01:11.142Z,97150.45
2018-01-16T15:03:39.438Z,97140.61
2018-01-16T15:06:07.709Z,97128.17
2018-01-16T15:08:36.019Z,97134.61
2018-01-16T15:11:04.416Z,97128.53
2018-01-16T15:13:33.394Z,97135.53
2018-01-16T15:16:01.695Z,97142.09
2018-01-16T15:18:29.944Z,97134.78
2018-01-16T15:20:58.312Z,97136.92
2018-01-16T15:23:26.587Z,97134.41
2018-01-16T15:25:54.903Z,97155.38
2018-01-16T15:28:23.193Z,97154.89
2018-01-16T15:30:51.473Z,97153.81
2018-01-16T15:33:19.753Z,97139.86
2018-01-16T15:35:48.028Z,97146.94
2018-01-16T15:38:16.290Z,97163.47
2018-01-16T15:40:44.590Z,97163.63
2018-01-16T15:43:12.895Z,97156.53
2018-01-16T15:45:41.159Z,97176.72
2018-01-16T15:48:09.443Z,97177.97
2018-01-16T15:50:37.700Z,97190.02
2018-01-16T15:53:06.039Z,97207.86
2018-01-16T15:55:34.312Z,97194.68
2018-01-16T15:58:02.624Z,97203.53
2018-01-16T16:00:30.893Z,97192.64
2018-01-16T16:02:59.199Z,97201.17
2018-01-16T16:05:27.483Z,97203.19
2018-01-16T16:07:55.747Z,97193.11
2018-01-16T16:10:24.047Z,97184.95
2018-01-16T16:12:52.300Z,97193.45
2018-01-16T16:15:20.632Z,97192.92
2018-01-16T16:17:48.887Z,97207.62
2018-01-16T16:20:17.987Z,97222.66
2018-01-16T16:22:46.243Z,97192.61
2018-01-16T16:25:14.560Z,97209.54
2018-01-16T16:27:42.829Z,97200.22
2018-01-16T16:30:11.124Z,97199.14
2018-01-16T16:32:39.403Z,97206.26
2018-01-16T16:35:07.885Z,97195.79
2018-01-16T16:37:36.104Z,97199.02
2018-01-16T16:40:04.804Z,97212.35
2018-01-16T16:42:33.075Z,97205.89
2018-01-16T16:45:01.404Z,97226.86
2018-01-16T16:47:29.881Z,97233.63
2018-01-16T16:49:58.142Z,97235.69
2018-01-16T16:52:26.453Z,97263.36
2018-01-16T16:54:54.761Z,97250.25
2018-01-16T16:57:23.023Z,97252.20
2018-01-16T16:59:51.361Z,97254.61
2018-01-16T17:02:19.655Z,97248.80
2018-01-16T17:04:47.914Z,97238.72
2018-01-16T17:07:16.162Z,97205.27
2018-01-16T17:09:44.453Z,97237.58
2018-01-16T17:12:12.716Z,97225.86
2018-01-16T17:14:41.028Z,97216.19
2018-01-16T17:17:09.325Z,97218.47
2018-01-16T17:19:37.642Z,97235.91
2018-01-16T17:22:05.891Z,97244.35
2018-01-16T17:24:34.151Z,97247.16
2018-01-16T17:27:02.457Z,97248.48
2018-01-16T17:29:30.704Z,97241.51
2018-01-16T17:31:58.996Z,97231.78
2018-01-16T17:34:27.264Z,97223.62
2018-01-16T17:36:55.530Z,97219.55
2018-01-16T17:39:23.792Z,97220.98
2018-01-16T17:41:52.084Z,97218.54
2018-01-16T17:44:20.376Z,97228.48
2018-01-16T17:46:48.616Z,97233.72
2018-01-16T17:49:16.891Z,97203.03
2018-01-16T17:51:45.139Z,97217.66
2018-01-16T17:54:13.422Z,97228.64
2018-01-16T17:56:41.698Z,97190.52
2018-01-16T17:59:10.267Z,97190.50
2018-01-16T18:01:38.494Z,97186.76
2018-01-16T18:04:06.770Z,97195.23
2018-01-16T18:06:35.037Z,97205.22
2018-01-16T18:09:03.325Z,97210.36
2018-01-16T18:11:31.581Z,97197.95
2018-01-16T18:13:59.911Z,97199.16
2018-01-16T18:16:28.347Z,97200.59
2018-01-16T18:18:56.624Z,97210.55
2018-01-16T18:21:24.871Z,97206.33
2018-01-16T18:23:53.143Z,97207.50
2018-01-16T18:26:21.414Z,97213.75
2018-01-16T18:28:49.680Z,97211.94
2018-01-16T18:31:17.968Z,97186.39
2018-01-16T18:33:46.227Z,97186.00
2018-01-16T18:36:14.567Z,97190.31
2018-01-16T18:38:42.818Z,97176.27
2018-01-16T18:41:11.134Z,97169.15
2018-01-16T18:43:39.377Z,97171.33
2018-01-16T18:46:07.672Z,97162.88
2018-01-16T18:48:35.920Z,97164.70
2018-01-16T18:51:04.235Z,97183.33
2018-01-16T18:53:32.487Z,97196.53
2018-01-16T18:56:01.571Z,97181.97
2018-01-16T18:58:29.878Z,97204.02
2018-01-16T19:00:58.133Z,97194.73
2018-01-16T19:03:26.423Z,97185.48
2018-01-16T19:05:54.670Z,97189.91
2018-01-16T19:08:22.982Z,97199.64
2018-01-16T19:10:51.243Z,97183.53
2018-01-16T19:13:19.525Z,97170.27
2018-01-16T19:15:47.781Z,97166.45
2018-01-16T19:18:16.041Z,97169.53
2018-01-16T19:20:44.335Z,97160.58
2018-01-16T19:23:12.606Z,97157.56
2018-01-16T19:25:40.890Z,97155.49
2018-01-16T19:28:09.138Z,97176.42
2018-01-16T19:30:37.459Z,97171.40
2018-01-16T19:33:05.714Z,97176.00
2018-01-16T19:35:33.989Z,97188.61
2018-01-16T19:38:02.471Z,97187.20
2018-01-16T19:40:30.748Z,97190.40
2018-01-16T19:42:58.996Z,97190.69
2018-01-16T19:45:27.293Z,97195.87
2018-01-16T19:47:55.541Z,97187.32
2018-01-16T19:50:23.815Z,97181.72
2018-01-16T19:52:52.051Z,97180.16
2018-01-16T19:55:20.346Z,97163.39
2018-01-16T19:57:48.745Z,97172.68
2018-01-16T20:00:17.007Z,97148.83
2018-01-16T20:02:45.287Z,97164.06
2018-01-16T20:05:13.526Z,97159.59
2018-01-16T20:07:42.698Z,97173.19
2018-01-16T20:10:10.951Z,97172.27
2018-01-16T20:12:39.240Z,97169.64
2018-01-16T20:15:07.530Z,97178.31
2018-01-16T20:17:35.843Z,97191.73
2018-01-16T20:20:04.090Z,97192.35
2018-01-16T20:22:32.392Z,97194.33
2018-01-16T20:25:00.648Z,97186.59
2018-01-16T20:27:28.951Z,97193.12
2018-01-16T20:29:57.210Z,97199.85
2018-01-16T20:32:25.486Z,97199.30
2018-01-16T20:34:53.810Z,97200.07
2018-01-16T20:37:22.034Z,97205.02
2018-01-16T20:39:50.320Z,97205.59
2018-01-16T20:42:18.574Z,97208.93
2018-01-16T20:44:46.871Z,97204.81
2018-01-16T20:47:15.172Z,97213.61
2018-01-16T20:49:43.444Z,97206.05
2018-01-16T20:52:11.766Z,97223.45
2018-01-16T20:54:40.042Z,97200.08
2018-01-16T20:57:08.319Z,97198.36
2018-01-16T20:59:36.577Z,97210.02
2018-01-16T21:02:04.849Z,97210.67
2018-01-16T21:04:33.097Z,97208.60
2018-01-16T21:07:01.374Z,97197.75
2018-01-16T21:09:29.627Z,97190.28
2018-01-16T21:11:58.220Z,97184.09
2018-01-16T21:14:26.471Z,97180.94
2018-01-16T21:16:54.747Z,97169.13
2018-01-16T21:19:23.004Z,97168.92
2018-01-16T21:21:51.291Z,97165.05
2018-01-16T21:24:19.551Z,97164.61
2018-01-16T21:26:47.862Z,97157.23
2018-01-16T21:29:16.091Z,97172.68
2018-01-16T21:31:44.417Z,97163.81
2018-01-16T21:34:12.686Z,97156.00
2018-01-16T21:36:40.995Z,97161.20
2018-01-16T21:39:09.232Z,97166.84
2018-01-16T21:41:37.498Z,97152.89
2018-01-16T21:44:05.791Z,97148.15
2018-01-16T21:46:34.039Z,97142.86
2018-01-16T21:49:02.324Z,97140.55
2018-01-16T21:51:30.575Z,97138.28
2018-01-16T21:53:58.860Z,97132.23
2018-01-16T21:56:27.107Z,97127.39
2018-01-16T21:58:55.392Z,97116.83
2018-01-16T22:01:23.645Z,97126.89
2018-01-16T22:03:51.936Z,97110.92
2018-01-16T22:06:20.183Z,97114.92
2018-01-16T22:08:48.482Z,97105.77
2018-01-16T22:11:16.726Z,97096.31
2018-01-16T22:13:45.008Z,97099.22
2018-01-16T22:16:13.307Z,97096.13
2018-01-16T22:18:41.547Z,97096.77
2018-01-16T22:21:09.815Z,97090.15
2018-01-16T22:23:38.073Z,97094.08
2018-01-16T22:26:06.367Z,97094.26
2018-01-16T22:28:34.620Z,97072.62
2018-01-16T22:31:02.959Z,97088.30
2018-01-16T22:33:31.231Z,97073.53
2018-01-16T22:35:59.523Z,97068.94
2018-01-16T22:38:27.775Z,97068.06
2018-01-16T22:40:56.057Z,97064.28
2018-01-16T22:43:24.300Z,97062.21
2018-01-16T22:45:52.575Z,97062.23
2018-01-16T22:48:20.850Z,97058.73
2018-01-16T22:50:49.121Z,97049.44
2018-01-16T22:53:17.412Z,97043.22
2018-01-16T22:55:45.660Z,97048.55
2018-01-16T22:58:13.931Z,97039.22
2018-01-16T23:00:42.201Z,97039.00
2018-01-16T23:03:10.471Z,97019.32
2018-01-16T23:05:38.748Z,97040.58
2018-01-16T23:08:07.007Z,97033.43
2018-01-16T23:10:35.351Z,97031.37
2018-01-16T23:13:03.595Z,97023.84
2018-01-16T23:15:31.868Z,97020.66
2018-01-16T23:18:00.205Z,97021.23
2018-01-16T23:20:28.460Z,97024.47
2018-01-16T23:22:56.734Z,97010.16
2018-01-16T23:25:24.984Z,97009.43
2018-01-16T23:27:53.267Z,97003.94
2018-01-16T23:30:21.538Z,97005.69
2018-01-16T23:32:49.828Z,96997.90
2018-01-16T23:35:18.070Z,96993.23
2018-01-16T23:37:46.363Z,96996.86
2018-01-16T23:40:14.671Z,96991.58
2018-01-16T23:42:42.948Z,96979.73
2018-01-16T23:45:11.491Z,96965.91
2018-01-16T23:47:39.773Z,96954.69
2018-01-16T23:50:08.079Z,96965.31
2018-01-16T23:52:36.370Z,96966.95
2018-01-16T23:55:05.012Z,96968.59
2018-01-16T23:57:33.292Z,96963.41
